Time;durP1;ratioP1;P1;durP2;ratioP2;P2;SDS_P1;SDS_P2;PMS_P1;PMS_P2;Temp;Humidity;BMP_temperature;BMP_pressure;BME280_temperature;BME280_humidity;BME280_pressure;Samples;Min_cycle;Max_cycle;Signal;HPM_P1;HPM_P2
2022/01/05 00:02:08;;;;;;;5.20;1.50;;;1.20;99.90;;;;;;5034181;28;20048;-67
2022/01/05 00:04:35;;;;;;;13.70;1.92;;;1.10;99.90;;;;;;5032688;28;20057;-67
2022/01/05 00:07:02;;;;;;;12.55;2.10;;;1.20;99.90;;;;;;5014326;28;20122;-67
2022/01/05 00:09:27;;;;;;;8.93;1.92;;;1.10;99.90;;;;;;5017354;28;20061;-66
2022/01/05 00:11:53;;;;;;;8.07;2.83;;;1.10;99.90;;;;;;5033027;28;20049;-66
2022/01/05 00:14:18;;;;;;;13.35;1.77;;;1.20;99.90;;;;;;5047826;28;20059;-66
2022/01/05 00:16:44;;;;;;;13.35;1.85;;;1.30;99.90;;;;;;5025755;28;20049;-66
2022/01/05 00:19:10;;;;;;;9.73;1.98;;;1.40;99.90;;;;;;5038549;28;20041;-67
2022/01/05 00:21:35;;;;;;;10.90;2.53;;;1.50;99.90;;;;;;5031392;28;20092;-69
2022/01/05 00:24:01;;;;;;;6.20;1.30;;;1.60;99.90;;;;;;5031836;28;20053;-68
2022/01/05 00:26:27;;;;;;;10.45;1.75;;;1.70;99.90;;;;;;5016923;28;20470;-67
2022/01/05 00:28:54;;;;;;;8.10;1.30;;;1.80;99.90;;;;;;5032448;28;20080;-66
2022/01/05 00:31:20;;;;;;;6.85;1.58;;;1.80;99.90;;;;;;5052087;28;20056;-67
2022/01/05 00:33:45;;;;;;;8.07;1.98;;;1.90;99.90;;;;;;5033412;28;20068;-66
2022/01/05 00:36:11;;;;;;;11.50;2.17;;;1.90;99.90;;;;;;5033253;28;20088;-66
2022/01/05 00:38:37;;;;;;;7.57;1.65;;;1.90;99.90;;;;;;5033656;28;20037;-66
2022/01/05 00:41:04;;;;;;;11.23;3.00;;;1.80;99.90;;;;;;5034727;28;20061;-67
2022/01/05 00:43:30;;;;;;;9.13;1.60;;;1.80;99.90;;;;;;5024677;28;20041;-67
2022/01/05 00:45:56;;;;;;;7.85;1.90;;;1.80;99.90;;;;;;5027927;28;20057;-66
2022/01/05 00:48:21;;;;;;;7.70;2.05;;;1.70;99.90;;;;;;5034894;28;20362;-66
2022/01/05 00:50:47;;;;;;;9.82;1.50;;;1.70;99.90;;;;;;5035397;28;20049;-68
2022/01/05 00:53:12;;;;;;;5.60;1.65;;;1.70;99.90;;;;;;5038003;28;20049;-67
2022/01/05 00:55:38;;;;;;;8.07;1.27;;;1.70;99.90;;;;;;5035673;28;20053;-66
2022/01/05 00:58:04;;;;;;;8.75;1.70;;;1.60;99.90;;;;;;5055512;28;20071;-66
2022/01/05 01:00:29;;;;;;;6.40;1.70;;;1.60;99.90;;;;;;5036157;28;20060;-67
2022/01/05 01:02:55;;;;;;;8.75;1.50;;;1.60;99.90;;;;;;5037457;28;20446;-66
2022/01/05 01:05:20;;;;;;;7.65;1.33;;;1.60;99.90;;;;;;5034111;28;20413;-68
2022/01/05 01:07:46;;;;;;;6.22;1.48;;;1.60;99.90;;;;;;5034528;28;20052;-66
2022/01/05 01:10:13;;;;;;;9.43;1.27;;;1.60;99.90;;;;;;5037537;28;20136;-66
2022/01/05 01:12:39;;;;;;;3.15;1.17;;;1.60;99.90;;;;;;5033358;28;20047;-68
2022/01/05 01:15:07;;;;;;;5.18;1.73;;;1.50;99.90;;;;;;5053143;28;20044;-65
2022/01/05 01:17:33;;;;;;;11.52;1.70;;;1.50;99.90;;;;;;5033151;28;20044;-67
2022/01/05 01:19:58;;;;;;;7.57;1.77;;;1.60;99.90;;;;;;5031642;28;20063;-66
2022/01/05 01:22:27;;;;;;;6.80;1.27;;;1.60;99.90;;;;;;5035546;28;20045;-66
2022/01/05 01:24:52;;;;;;;7.07;1.63;;;1.60;99.90;;;;;;5037511;28;20048;-67
2022/01/05 01:27:18;;;;;;;7.05;1.85;;;1.60;99.90;;;;;;5035904;28;20413;-66
2022/01/05 01:29:43;;;;;;;7.07;1.50;;;1.60;99.90;;;;;;5037508;28;20428;-67
2022/01/05 01:32:09;;;;;;;8.32;1.38;;;1.60;99.90;;;;;;5035411;28;20507;-65
2022/01/05 01:34:35;;;;;;;7.28;1.48;;;1.70;99.90;;;;;;5036477;28;20037;-66
2022/01/05 01:37:01;;;;;;;7.90;1.45;;;1.70;99.90;;;;;;5036749;28;20052;-66
2022/01/05 01:39:26;;;;;;;5.85;1.10;;;1.70;99.90;;;;;;5035970;28;20074;-66
2022/01/05 01:41:52;;;;;;;9.13;1.95;;;1.60;99.90;;;;;;5029589;28;20045;-66
2022/01/05 01:44:17;;;;;;;8.93;1.60;;;1.70;99.90;;;;;;5033993;28;20146;-67
2022/01/05 01:46:43;;;;;;;5.72;1.58;;;1.70;99.90;;;;;;5036429;28;20413;-66
2022/01/05 01:49:08;;;;;;;8.07;1.17;;;1.60;99.90;;;;;;5034899;28;20049;-67
2022/01/05 01:51:34;;;;;;;4.88;1.30;;;1.60;99.90;;;;;;5036846;28;20041;-65
2022/01/05 01:54:01;;;;;;;6.38;1.30;;;1.70;99.90;;;;;;5031454;28;20052;-66
2022/01/05 01:56:31;;;;;;;6.07;1.67;;;1.50;99.90;;;;;;5016696;28;20097;-65
2022/01/05 01:58:57;;;;;;;7.05;1.75;;;1.50;99.90;;;;;;5016397;28;20064;-67
2022/01/05 02:01:22;;;;;;;4.95;1.42;;;1.50;99.90;;;;;;5025267;28;20061;-68
2022/01/05 02:03:48;;;;;;;8.23;1.60;;;1.50;99.90;;;;;;5035499;28;20061;-67
2022/01/05 02:06:14;;;;;;;7.18;2.00;;;1.50;99.90;;;;;;5029663;28;20504;-66
2022/01/05 02:08:40;;;;;;;10.77;1.67;;;1.60;99.90;;;;;;5031447;28;20057;-67
2022/01/05 02:11:07;;;;;;;7.43;1.40;;;1.60;99.90;;;;;;5036283;28;20057;-67
2022/01/05 02:13:33;;;;;;;8.85;1.90;;;1.60;99.90;;;;;;5019020;28;20524;-67
2022/01/05 02:15:58;;;;;;;8.43;1.30;;;1.50;99.90;;;;;;5035384;28;20049;-66
2022/01/05 02:20:57;;;;;;;7.60;1.48;;;1.60;99.90;;;;;;5035196;28;20053;-69
2022/01/05 02:23:23;;;;;;;10.27;1.70;;;1.50;99.90;;;;;;5034850;28;20107;-66
2022/01/05 02:25:48;;;;;;;7.85;1.67;;;1.60;99.90;;;;;;5036078;28;20493;-67
2022/01/05 02:28:14;;;;;;;11.25;2.03;;;1.70;99.90;;;;;;5033989;28;20075;-68
2022/01/05 02:30:42;;;;;;;7.90;1.70;;;1.60;99.90;;;;;;5035260;28;20059;-68
2022/01/05 02:33:07;;;;;;;13.13;2.45;;;1.70;99.90;;;;;;5022926;28;20132;-67
2022/01/05 02:35:33;;;;;;;11.30;1.50;;;1.80;99.90;;;;;;5036562;28;20466;-67
2022/01/05 02:37:59;;;;;;;10.77;2.08;;;1.80;99.90;;;;;;5033885;28;20048;-68
2022/01/05 02:40:25;;;;;;;9.18;1.55;;;1.80;99.90;;;;;;5035891;28;20052;-68
2022/01/05 02:42:54;;;;;;;11.00;2.17;;;1.90;99.90;;;;;;5033841;28;20048;-65
2022/01/05 02:45:21;;;;;;;8.27;1.95;;;1.90;99.90;;;;;;5033833;28;20056;-66
2022/01/05 02:47:47;;;;;;;14.05;2.25;;;1.90;99.90;;;;;;5035054;28;20155;-66
2022/01/05 02:50:12;;;;;;;10.00;2.28;;;2.00;99.90;;;;;;5035304;28;20552;-66
2022/01/05 02:52:38;;;;;;;9.55;2.03;;;2.00;99.90;;;;;;5035129;28;20465;-67
2022/01/05 02:55:04;;;;;;;8.27;1.80;;;2.00;99.90;;;;;;5031615;28;20076;-67
2022/01/05 02:57:30;;;;;;;11.50;2.40;;;2.00;99.90;;;;;;5032956;28;20409;-67
2022/01/05 02:59:56;;;;;;;7.15;2.03;;;2.00;99.90;;;;;;5044321;28;20050;-66
2022/01/05 03:02:22;;;;;;;9.80;2.50;;;2.00;99.90;;;;;;5021178;28;20428;-67
2022/01/05 03:04:48;;;;;;;10.65;3.55;;;2.00;99.90;;;;;;5035516;28;20052;-68
2022/01/05 03:07:15;;;;;;;8.32;2.17;;;2.00;99.90;;;;;;5033791;28;20130;-67
2022/01/05 03:09:41;;;;;;;11.48;2.42;;;2.00;99.90;;;;;;5033629;28;20052;-66
2022/01/05 03:12:07;;;;;;;11.50;2.17;;;2.00;99.90;;;;;;5034716;28;20465;-66
2022/01/05 03:14:33;;;;;;;15.57;2.50;;;2.10;99.90;;;;;;5033819;28;20112;-67
2022/01/05 03:16:58;;;;;;;11.77;1.98;;;2.10;99.90;;;;;;5034898;28;20064;-68
2022/01/05 03:19:24;;;;;;;8.98;2.03;;;2.20;99.90;;;;;;5050903;28;20049;-66
2022/01/05 03:21:50;;;;;;;10.23;2.13;;;2.20;99.90;;;;;;5052351;28;20064;-67
2022/01/05 03:24:15;;;;;;;10.52;2.15;;;2.20;99.90;;;;;;5033266;28;20404;-68
2022/01/05 03:26:41;;;;;;;11.85;2.20;;;2.10;99.90;;;;;;5034295;28;20206;-67
2022/01/05 03:29:06;;;;;;;11.63;1.95;;;2.20;99.90;;;;;;5035727;28;20067;-68
2022/01/05 03:31:32;;;;;;;10.70;2.55;;;2.20;99.90;;;;;;5033569;28;20071;-65
2022/01/05 03:33:58;;;;;;;13.38;1.92;;;2.20;99.90;;;;;;5032070;28;20119;-66
2022/01/05 03:36:25;;;;;;;11.13;2.28;;;2.20;99.90;;;;;;5033421;28;20126;-67
2022/01/05 03:38:50;;;;;;;17.58;2.35;;;2.30;99.90;;;;;;5035013;28;20064;-68
2022/01/05 03:41:16;;;;;;;10.18;2.20;;;2.30;99.90;;;;;;5032184;28;20061;-65
2022/01/05 03:43:42;;;;;;;17.13;2.13;;;2.40;99.90;;;;;;5035169;28;20049;-66
2022/01/05 03:46:07;;;;;;;10.88;2.05;;;2.30;99.90;;;;;;5032811;28;20056;-66
2022/01/05 03:48:33;;;;;;;17.23;2.25;;;2.30;99.90;;;;;;5029453;28;20063;-66
2022/01/05 03:50:58;;;;;;;16.98;2.38;;;2.30;99.90;;;;;;5050684;28;20505;-66
2022/01/05 03:53:24;;;;;;;9.93;2.75;;;2.30;99.90;;;;;;5017104;28;20051;-67
2022/01/05 03:55:49;;;;;;;15.20;2.40;;;2.30;99.90;;;;;;5023262;28;20049;-67
2022/01/05 03:58:15;;;;;;;13.35;2.42;;;2.30;99.90;;;;;;5030942;28;20088;-66
2022/01/05 04:00:45;;;;;;;16.52;2.42;;;2.40;99.90;;;;;;5034525;28;20045;-67
2022/01/05 04:03:11;;;;;;;15.15;2.60;;;2.40;99.90;;;;;;5033505;28;20060;-66
2022/01/05 04:05:37;;;;;;;10.23;2.00;;;2.40;99.90;;;;;;5033237;28;20049;-66
2022/01/05 04:08:03;;;;;;;12.07;2.15;;;2.40;99.90;;;;;;5034303;28;20443;-66
2022/01/05 04:10:29;;;;;;;21.42;3.03;;;2.40;99.90;;;;;;5031614;28;20049;-67
2022/01/05 04:12:54;;;;;;;12.48;2.50;;;2.40;99.90;;;;;;5034582;28;20065;-66
2022/01/05 04:15:20;;;;;;;9.82;2.72;;;2.50;99.90;;;;;;5049069;28;20102;-67
2022/01/05 04:17:46;;;;;;;13.85;2.55;;;2.50;99.90;;;;;;5034104;28;20068;-67
2022/01/05 04:20:13;;;;;;;15.98;3.13;;;2.50;99.90;;;;;;5032010;28;20057;-68
2022/01/05 04:22:39;;;;;;;13.18;2.15;;;2.50;99.90;;;;;;5017926;28;20053;-64
2022/01/05 04:25:06;;;;;;;10.85;1.85;;;2.60;99.90;;;;;;5037398;28;20420;-66
2022/01/05 04:27:31;;;;;;;10.80;2.20;;;2.60;99.90;;;;;;5038223;28;20052;-69
2022/01/05 04:29:57;;;;;;;7.65;1.98;;;2.60;99.90;;;;;;5036997;28;20063;-68
2022/01/05 04:32:22;;;;;;;8.27;1.77;;;2.70;99.90;;;;;;5037856;28;20049;-64
2022/01/05 04:34:48;;;;;;;11.52;3.17;;;2.80;99.90;;;;;;5037258;28;20107;-66
2022/01/05 04:37:14;;;;;;;9.93;2.03;;;3.00;99.90;;;;;;5038188;28;20048;-66
2022/01/05 04:39:39;;;;;;;14.50;2.85;;;3.00;99.90;;;;;;5036530;28;20061;-64
2022/01/05 04:42:05;;;;;;;10.48;1.80;;;3.00;99.90;;;;;;5055884;28;20091;-65
2022/01/05 04:44:31;;;;;;;9.10;2.72;;;3.10;99.90;;;;;;5036264;28;20409;-67
2022/01/05 04:46:56;;;;;;;9.75;2.78;;;3.20;99.90;;;;;;5037978;28;20065;-65
2022/01/05 04:49:22;;;;;;;15.15;2.55;;;3.10;99.90;;;;;;5036999;28;20449;-64
2022/01/05 04:51:48;;;;;;;12.63;2.63;;;3.00;99.90;;;;;;5037966;28;20044;-65
2022/01/05 04:54:14;;;;;;;11.02;2.13;;;3.00;99.90;;;;;;5034826;28;20083;-67
2022/01/05 04:56:39;;;;;;;7.00;2.25;;;3.10;99.90;;;;;;5036222;28;20434;-66
2022/01/05 04:59:05;;;;;;;9.60;1.98;;;3.00;99.90;;;;;;5037670;28;20053;-66
2022/01/05 05:01:30;;;;;;;7.55;1.45;;;3.00;99.90;;;;;;5036376;28;20045;-65
2022/01/05 05:03:56;;;;;;;12.25;2.15;;;3.00;99.90;;;;;;5037829;28;20057;-67
2022/01/05 05:06:22;;;;;;;14.32;2.55;;;3.00;99.90;;;;;;5035629;28;20049;-65
2022/01/05 05:08:48;;;;;;;8.15;2.10;;;3.00;99.90;;;;;;5053990;28;20053;-64
2022/01/05 05:11:14;;;;;;;11.05;2.00;;;3.10;99.90;;;;;;5052324;28;20053;-65
2022/01/05 05:13:40;;;;;;;7.70;1.75;;;3.10;99.90;;;;;;5053967;28;20071;-64
2022/01/05 05:16:05;;;;;;;10.18;2.42;;;3.00;99.90;;;;;;5035893;28;20267;-65
2022/01/05 05:18:31;;;;;;;7.30;1.70;;;3.00;99.90;;;;;;5018207;28;20095;-65
2022/01/05 05:20:57;;;;;;;11.77;2.17;;;3.10;99.90;;;;;;5037221;28;20536;-66
2022/01/05 05:23:23;;;;;;;8.05;2.00;;;3.10;99.90;;;;;;5021193;28;20057;-65
2022/01/05 05:25:49;;;;;;;9.30;2.00;;;3.10;99.90;;;;;;5034177;28;20045;-65
2022/01/05 05:28:14;;;;;;;9.07;1.70;;;3.10;99.90;;;;;;5037587;28;20103;-65
2022/01/05 05:30:40;;;;;;;9.25;2.13;;;3.10;99.90;;;;;;5035689;28;20102;-65
2022/01/05 05:33:06;;;;;;;10.25;2.10;;;3.10;99.90;;;;;;5036007;28;20408;-65
2022/01/05 05:35:32;;;;;;;11.43;2.03;;;3.10;99.90;;;;;;5036479;28;20056;-66
2022/01/05 05:37:57;;;;;;;8.20;2.00;;;3.10;99.90;;;;;;5032119;28;20084;-67
2022/01/05 05:40:24;;;;;;;9.63;2.28;;;3.20;99.90;;;;;;5006509;28;20044;-66
2022/01/05 05:42:50;;;;;;;11.73;2.30;;;3.20;99.90;;;;;;5036587;28;20401;-67
2022/01/05 05:45:16;;;;;;;9.40;2.38;;;3.40;99.90;;;;;;5036307;28;20052;-66
2022/01/05 05:47:42;;;;;;;13.65;2.97;;;3.40;99.90;;;;;;5053075;28;20057;-66
2022/01/05 05:50:08;;;;;;;11.68;2.55;;;3.50;99.90;;;;;;5035190;28;20045;-66
2022/01/05 05:52:34;;;;;;;10.32;2.58;;;3.40;99.90;;;;;;5035471;28;20494;-66
2022/01/05 05:55:00;;;;;;;9.15;2.33;;;3.50;99.90;;;;;;5036095;28;20045;-65
2022/01/05 05:57:25;;;;;;;9.43;2.13;;;3.50;99.90;;;;;;5036385;28;20055;-66
2022/01/05 05:59:51;;;;;;;14.30;2.05;;;3.50;99.90;;;;;;5022381;28;20053;-67
2022/01/05 06:02:16;;;;;;;15.82;3.08;;;3.60;99.90;;;;;;5035727;28;20091;-67
2022/01/05 06:04:42;;;;;;;8.13;2.08;;;3.60;99.90;;;;;;5036524;28;20073;-66
2022/01/05 06:07:08;;;;;;;10.93;2.40;;;3.70;99.90;;;;;;5035542;28;20461;-66
2022/01/05 06:09:33;;;;;;;12.52;2.47;;;3.80;99.90;;;;;;5036520;28;20106;-65
2022/01/05 06:11:59;;;;;;;10.18;2.15;;;3.80;99.90;;;;;;5034029;28;20102;-67
2022/01/05 06:14:24;;;;;;;15.77;2.50;;;3.90;99.90;;;;;;5023717;28;20052;-66
2022/01/05 06:16:50;;;;;;;15.65;2.42;;;3.90;99.90;;;;;;5024103;28;20048;-67
2022/01/05 06:19:15;;;;;;;9.90;1.90;;;3.90;99.90;;;;;;5036019;28;20110;-68
2022/01/05 06:21:43;;;;;;;11.45;2.30;;;4.00;99.90;;;;;;5032222;28;20346;-66
2022/01/05 06:24:08;;;;;;;8.77;2.58;;;4.00;99.90;;;;;;5054077;28;20417;-66
2022/01/05 06:26:34;;;;;;;10.25;2.33;;;3.90;99.90;;;;;;5032457;28;20050;-67
2022/01/05 06:29:00;;;;;;;12.05;3.85;;;3.90;99.90;;;;;;5035779;28;20140;-67
2022/01/05 06:31:25;;;;;;;10.25;2.75;;;3.80;99.90;;;;;;5033955;28;20059;-65
2022/01/05 06:33:51;;;;;;;14.18;2.55;;;3.80;99.90;;;;;;5034153;28;20052;-67
2022/01/05 06:36:16;;;;;;;11.32;2.22;;;3.80;99.90;;;;;;5034173;28;20068;-67
2022/01/05 06:38:42;;;;;;;13.65;2.00;;;3.80;99.90;;;;;;5031087;28;20049;-66
2022/01/05 06:41:07;;;;;;;9.55;2.10;;;3.80;99.90;;;;;;5034242;28;20056;-68
2022/01/05 06:43:34;;;;;;;8.23;2.30;;;3.80;99.90;;;;;;5027708;28;20120;-67
2022/01/05 06:45:59;;;;;;;12.02;2.30;;;3.80;99.90;;;;;;5016037;28;20413;-65
2022/01/05 06:48:25;;;;;;;11.85;2.55;;;3.80;99.90;;;;;;5027595;28;20144;-67
2022/01/05 06:50:51;;;;;;;10.82;2.35;;;3.80;99.90;;;;;;5022857;28;20045;-67
2022/01/05 06:53:16;;;;;;;10.77;2.30;;;3.80;99.90;;;;;;5011529;28;20045;-67
2022/01/05 06:55:42;;;;;;;8.05;1.92;;;3.70;99.90;;;;;;5051282;28;20061;-68
2022/01/05 06:58:07;;;;;;;9.10;2.63;;;3.80;99.90;;;;;;5024060;28;20531;-66
2022/01/05 07:00:33;;;;;;;7.57;2.00;;;3.80;99.90;;;;;;5042435;28;20076;-66
2022/01/05 07:02:59;;;;;;;9.07;2.28;;;3.80;99.90;;;;;;5019779;28;20045;-67
2022/01/05 07:05:25;;;;;;;15.88;2.35;;;3.80;99.90;;;;;;5030939;28;20041;-66
2022/01/05 07:07:51;;;;;;;8.70;2.40;;;3.80;99.90;;;;;;5018605;28;20049;-66
2022/01/05 07:10:17;;;;;;;8.45;2.00;;;3.80;99.90;;;;;;5015340;28;20056;-67
2022/01/05 07:12:43;;;;;;;8.95;2.03;;;3.80;99.90;;;;;;5015126;28;20060;-67
2022/01/05 07:15:10;;;;;;;7.70;1.60;;;3.80;99.90;;;;;;5017239;28;20053;-66
2022/01/05 07:17:36;;;;;;;4.68;1.38;;;3.80;99.90;;;;;;5033228;28;20501;-66
2022/01/05 07:20:04;;;;;;;7.75;1.60;;;3.70;99.90;;;;;;5041108;28;20142;-67
2022/01/05 07:22:30;;;;;;;6.50;1.67;;;3.70;99.90;;;;;;5022071;28;20065;-68
2022/01/05 07:24:56;;;;;;;7.68;1.58;;;3.70;99.90;;;;;;5015622;28;20060;-66
2022/01/05 07:27:22;;;;;;;4.75;1.52;;;3.70;99.90;;;;;;5015422;28;20045;-67
2022/01/05 07:29:48;;;;;;;6.93;2.20;;;3.60;99.90;;;;;;5026038;28;20481;-66
2022/01/05 07:32:13;;;;;;;6.10;1.48;;;3.60;99.90;;;;;;5023728;28;20036;-67
2022/01/05 07:34:39;;;;;;;9.63;1.75;;;3.50;99.90;;;;;;5035159;28;20114;-69
2022/01/05 07:37:05;;;;;;;5.05;1.13;;;3.50;99.90;;;;;;5031635;28;20057;-67
2022/01/05 07:39:30;;;;;;;6.15;1.67;;;3.40;99.90;;;;;;5028877;28;20143;-66
2022/01/05 07:41:56;;;;;;;7.55;1.52;;;3.40;99.90;;;;;;5031098;28;20048;-68
2022/01/05 07:44:21;;;;;;;9.13;1.60;;;3.40;99.90;;;;;;5029664;28;20115;-67
2022/01/05 07:46:47;;;;;;;7.68;1.45;;;3.40;99.90;;;;;;5027547;28;20060;-67
2022/01/05 07:49:13;;;;;;;9.55;1.83;;;3.60;99.90;;;;;;5030772;28;20374;-67
2022/01/05 07:51:38;;;;;;;9.10;1.60;;;3.40;99.90;;;;;;5019369;28;20052;-68
2022/01/05 07:54:04;;;;;;;7.93;1.50;;;3.40;99.90;;;;;;5023838;28;20053;-66
2022/01/05 07:56:30;;;;;;;4.97;1.45;;;3.50;99.90;;;;;;5034462;28;20110;-66
2022/01/05 07:58:56;;;;;;;8.75;1.80;;;3.50;99.90;;;;;;5064372;28;20086;-67
2022/01/05 08:01:22;;;;;;;7.88;1.60;;;3.50;99.90;;;;;;5034976;28;20085;-67
2022/01/05 08:03:48;;;;;;;6.28;1.95;;;3.50;99.90;;;;;;5018823;28;20049;-66
2022/01/05 08:06:14;;;;;;;6.85;1.60;;;3.60;99.90;;;;;;5025313;28;20049;-67
2022/01/05 08:08:40;;;;;;;8.60;2.08;;;3.60;99.90;;;;;;5037894;28;20481;-69
2022/01/05 08:11:06;;;;;;;7.97;2.00;;;3.80;99.90;;;;;;5029856;28;20077;-66
2022/01/05 08:13:32;;;;;;;10.57;1.95;;;3.70;99.90;;;;;;5049372;28;20511;-68
2022/01/05 08:15:58;;;;;;;10.07;1.65;;;3.80;99.90;;;;;;5018356;28;20064;-67
2022/01/05 08:18:23;;;;;;;10.25;1.85;;;4.00;99.90;;;;;;5020184;28;20049;-67
2022/01/05 08:20:49;;;;;;;11.50;2.20;;;4.00;99.90;;;;;;5033532;28;20401;-68
2022/01/05 08:23:22;;;;;;;14.52;2.75;;;4.10;99.90;;;;;;5055425;28;20084;-66
2022/01/05 08:25:49;;;;;;;13.70;2.80;;;4.20;99.90;;;;;;5055547;28;20096;-68
2022/01/05 08:28:16;;;;;;;11.50;2.30;;;4.30;99.90;;;;;;5036498;28;20118;-67
2022/01/05 08:30:44;;;;;;;8.85;2.38;;;4.40;99.90;;;;;;5054733;28;20049;-68
2022/01/05 08:33:10;;;;;;;9.63;2.38;;;4.60;99.90;;;;;;5038246;28;20056;-68
2022/01/05 08:35:37;;;;;;;14.32;2.97;;;4.80;99.90;;;;;;5021426;28;20057;-68
2022/01/05 08:38:03;;;;;;;12.60;2.40;;;4.50;99.90;;;;;;5037567;28;20051;-68
2022/01/05 08:40:30;;;;;;;9.98;2.17;;;4.60;99.90;;;;;;5036988;28;20124;-69
2022/01/05 08:42:56;;;;;;;7.03;1.67;;;4.80;99.90;;;;;;5038536;28;20401;-67
2022/01/05 08:45:23;;;;;;;5.40;1.67;;;4.70;99.90;;;;;;5038637;28;20041;-66
2022/01/05 08:47:50;;;;;;;8.23;1.90;;;4.70;99.90;;;;;;5018077;28;20038;-67
2022/01/05 08:50:18;;;;;;;10.27;1.92;;;4.80;99.90;;;;;;5029116;28;20478;-66
2022/01/05 08:52:45;;;;;;;11.63;2.30;;;4.60;99.90;;;;;;5025210;28;20042;-67
2022/01/05 08:55:12;;;;;;;7.47;1.77;;;4.60;99.90;;;;;;5017772;28;20056;-66
2022/01/05 08:57:40;;;;;;;4.53;1.55;;;4.80;99.90;;;;;;5007907;28;20053;-67
2022/01/05 09:00:06;;;;;;;6.15;1.77;;;4.60;99.90;;;;;;5026235;28;20046;-68
2022/01/05 09:02:32;;;;;;;8.18;2.00;;;4.70;99.90;;;;;;5035936;28;20037;-68
2022/01/05 09:04:57;;;;;;;8.48;1.88;;;4.70;99.90;;;;;;5027470;28;20494;-68
2022/01/05 09:07:23;;;;;;;9.60;1.88;;;4.80;99.90;;;;;;5030787;28;20390;-66
2022/01/05 09:09:49;;;;;;;8.40;2.40;;;;;;;;;;5035901;28;20045;-68
2022/01/05 09:12:22;;;;;;;10.65;2.25;;;;;;;;;;5036335;28;20106;-68
2022/01/05 09:14:54;;;;;;;6.50;1.70;;;;;;;;;;5042904;28;20549;-68
2022/01/05 09:17:25;;;;;;;11.15;2.15;;;;;;;;;;5039280;28;20397;-68
2022/01/05 09:19:54;;;;;;;6.95;1.73;;;;;;;;;;5054239;28;20056;-66
2022/01/05 09:22:24;;;;;;;8.23;1.88;;;;;;;;;;5048928;28;20045;-67
2022/01/05 09:24:52;;;;;;;7.85;1.88;;;;;;;;;;5036565;28;20084;-69
2022/01/05 09:27:19;;;;;;;5.93;1.55;;;;;;;;;;5055174;28;20103;-67
2022/01/05 09:29:48;;;;;;;14.38;2.10;;;;;;;;;;5037409;28;20538;-66
2022/01/05 09:32:15;;;;;;;7.43;1.83;;;;;;;;;;5036771;28;20056;-67
2022/01/05 09:34:43;;;;;;;8.82;1.70;;;;;;;;;;5037189;28;20049;-66
2022/01/05 09:37:21;;;;;;;13.63;2.40;;;;;;;;;;5035379;28;20069;-68
2022/01/05 09:42:34;;;;;;;12.50;1.92;;;;;;;;;;5036903;28;20053;-67
2022/01/05 09:45:01;;;;;;;8.60;2.05;;;;;;;;;;5036664;28;20107;-66
2022/01/05 09:47:49;;;;;;;8.13;1.90;;;;;;;;;;5035866;28;20048;-67
2022/01/05 09:50:16;;;;;;;11.80;1.90;;;;;;;;;;5036738;28;20057;-67
2022/01/05 09:52:46;;;;;;;11.32;2.13;;;;;;;;;;5036174;28;20084;-67
2022/01/05 09:55:15;;;;;;;15.32;2.80;;;;;;;;;;5036956;28;20060;-67
2022/01/05 09:57:43;;;;;;;12.90;2.35;;;;;;;;;;5035499;28;20110;-67
2022/01/05 10:00:11;;;;;;;16.88;2.88;;;;;;;;;;5036492;28;20443;-66
2022/01/05 10:02:39;;;;;;;9.02;2.17;;;;;;;;;;5036051;28;20049;-67
2022/01/05 10:05:09;;;;;;;13.98;2.78;;;;;;;;;;5036271;28;20049;-69
2022/01/05 10:07:38;;;;;;;16.63;3.22;;;;;;;;;;5035760;28;20045;-67
2022/01/05 10:10:05;;;;;;;9.00;2.10;;;;;;;;;;5054232;28;20049;-69
2022/01/05 10:12:32;;;;;;;12.15;2.40;;;;;;;;;;5036523;28;20444;-66
2022/01/05 10:14:59;;;;;;;19.13;3.20;;;;;;;;;;5031122;28;20051;-66
2022/01/05 10:17:30;;;;;;;19.02;3.00;;;;;;;;;;5053406;28;20052;-66
2022/01/05 10:19:59;;;;;;;13.38;2.97;;;;;;;;;;5036533;28;20136;-66
2022/01/05 10:22:33;;;;;;;16.65;3.35;;;;;;;;;;5035848;28;20477;-66
2022/01/05 10:25:21;;;;;;;17.60;3.40;;;6.00;99.90;;;;;;5036221;28;20052;-67
2022/01/05 10:28:05;;;;;;;16.42;2.35;;;;;;;;;;5052838;28;20056;-67
2022/01/05 10:30:34;;;;;;;14.20;2.80;;;;;;;;;;5054476;28;20088;-68
2022/01/05 10:33:01;;;;;;;14.35;2.90;;;;;;;;;;5035028;28;20523;-66
2022/01/05 10:35:27;;;;;;;15.35;3.10;;;6.40;99.90;;;;;;5036378;28;20077;-67
2022/01/05 10:38:01;;;;;;;16.58;2.90;;;6.40;99.90;;;;;;5034950;28;20135;-66
2022/01/05 10:40:27;;;;;;;20.52;3.45;;;6.60;99.90;;;;;;5016358;28;20111;-67
2022/01/05 10:42:55;;;;;;;13.50;3.28;;;6.50;99.90;;;;;;5016104;28;20061;-66
2022/01/05 10:45:23;;;;;;;11.48;3.25;;;6.40;99.90;;;;;;5034470;28;20401;-67
2022/01/05 10:48:09;;;;;;;14.32;2.50;;;6.50;99.90;;;;;;5030720;28;20053;-67
2022/01/05 10:50:35;;;;;;;11.63;2.17;;;6.60;99.90;;;;;;5054194;28;20072;-66
2022/01/05 10:53:02;;;;;;;13.00;2.35;;;6.40;99.90;;;;;;5035700;28;20123;-67
2022/01/05 10:55:30;;;;;;;11.90;2.83;;;6.40;99.90;;;;;;5035588;28;20241;-67
2022/01/05 10:57:55;;;;;;;15.07;2.40;;;6.40;99.90;;;;;;5035351;28;20053;-68
2022/01/05 11:00:30;;;;;;;12.73;3.38;;;6.70;99.90;;;;;;5035172;28;20497;-67
2022/01/05 11:02:55;;;;;;;11.55;2.35;;;6.60;99.90;;;;;;5049269;28;20071;-67
2022/01/05 11:05:22;;;;;;;12.68;2.53;;;;;;;;;;5035573;28;20397;-66
2022/01/05 11:07:47;;;;;;;13.68;2.10;;;6.80;99.90;;;;;;5052563;28;20118;-66
2022/01/05 11:10:16;;;;;;;15.50;2.47;;;6.90;99.90;;;;;;5030512;28;20045;-67
2022/01/05 11:12:46;;;;;;;14.93;3.33;;;6.80;99.90;;;;;;5031349;28;20053;-65
2022/01/05 11:15:22;;;;;;;8.48;2.25;;;6.90;99.90;;;;;;5038376;28;20124;-68
2022/01/05 11:18:08;;;;;;;8.63;1.30;;;7.00;99.90;;;;;;5033953;28;20134;-65
2022/01/05 11:20:37;;;;;;;7.25;2.30;;;6.90;99.90;;;;;;5032224;28;20117;-67
2022/01/05 11:23:04;;;;;;;15.00;2.95;;;7.20;99.90;;;;;;5052773;28;20063;-67
2022/01/05 11:25:30;;;;;;;13.88;3.58;;;7.10;99.90;;;;;;5052734;28;20465;-66
2022/01/05 11:27:57;;;;;;;7.53;2.50;;;7.20;99.90;;;;;;5030507;28;20050;-67
2022/01/05 11:30:23;;;;;;;13.15;3.30;;;7.20;99.90;;;;;;5032902;28;20390;-66
2022/01/05 11:32:50;;;;;;;7.45;2.58;;;7.20;99.90;;;;;;5013993;28;20056;-67
2022/01/05 11:35:15;;;;;;;14.10;2.22;;;7.30;99.90;;;;;;5017677;28;20566;-67
2022/01/05 11:37:41;;;;;;;14.25;2.00;;;7.20;99.90;;;;;;5031448;28;20053;-66
2022/01/05 11:40:08;;;;;;;7.45;1.83;;;7.20;99.90;;;;;;5015329;28;20096;-67
2022/01/05 11:42:38;;;;;;;9.27;1.80;;;7.40;99.90;;;;;;5035233;28;20076;-67
2022/01/05 11:45:06;;;;;;;7.47;1.70;;;7.30;99.90;;;;;;5034405;28;20052;-66
2022/01/05 11:47:37;;;;;;;10.52;1.92;;;7.40;99.90;;;;;;5030096;28;20049;-66
2022/01/05 11:50:14;;;;;;;7.18;1.52;;;7.40;99.90;;;;;;5016417;28;20128;-66
2022/01/05 11:53:06;;;;;;;11.57;1.75;;;7.30;99.90;;;;;;5034762;28;20142;-65
2022/01/05 11:55:58;;;;;;;10.18;2.10;;;7.40;99.90;;;;;;5032115;28;20095;-67
2022/01/05 11:58:27;;;;;;;16.25;2.42;;;7.30;99.90;;;;;;5033797;28;20053;-67
2022/01/05 12:01:12;;;;;;;14.52;2.28;;;7.40;99.90;;;;;;5034692;28;20057;-66
2022/01/05 12:03:50;;;;;;;12.15;2.38;;;7.30;99.90;;;;;;5034038;28;20441;-67
2022/01/05 12:06:16;;;;;;;10.73;1.90;;;7.30;99.90;;;;;;5052790;28;20063;-66
2022/01/05 12:08:49;;;;;;;12.48;2.42;;;7.10;99.90;;;;;;5034231;28;20057;-68
2022/01/05 12:11:38;;;;;;;8.95;1.95;;;7.20;99.90;;;;;;5022320;28;20057;-66
2022/01/05 12:14:23;;;;;;;7.80;1.60;;;7.00;99.90;;;;;;5031901;28;20044;-66
2022/01/05 12:17:07;;;;;;;6.35;0.95;;;6.90;99.90;;;;;;5018179;28;20398;-69
2022/01/05 12:19:55;;;;;;;3.53;1.20;;;7.00;99.90;;;;;;5015376;28;20057;-67
2022/01/05 12:22:23;;;;;;;6.22;1.23;;;7.00;99.90;;;;;;5014339;28;20513;-67
2022/01/05 12:25:03;;;;;;;6.68;1.30;;;6.80;99.90;;;;;;5014841;28;20054;-66
2022/01/05 12:27:33;;;;;;;6.28;1.50;;;7.20;99.90;;;;;;5014376;28;20051;-67
2022/01/05 12:30:00;;;;;;;9.35;1.70;;;7.30;99.90;;;;;;5014441;28;20057;-66
2022/01/05 12:32:34;;;;;;;7.63;2.08;;;7.30;99.90;;;;;;5014012;28;20045;-68
2022/01/05 12:35:05;;;;;;;6.07;1.25;;;7.20;99.90;;;;;;5014584;28;20482;-66
2022/01/05 12:37:37;;;;;;;9.45;1.70;;;7.60;99.90;;;;;;5014596;28;20103;-67
2022/01/05 12:40:21;;;;;;;;;;;7.40;99.90;;;;;;5014798;28;20061;-65
2022/01/05 12:42:47;;;;;;;8.40;1.60;;;7.50;99.90;;;;;;5031833;28;19921;-66
2022/01/05 12:46:03;;;;;;;9.95;2.25;;;7.50;99.90;;;;;;5016485;28;20057;-66
2022/01/05 12:48:32;;;;;;;11.52;2.42;;;7.50;99.90;;;;;;5030238;28;20123;-67
2022/01/05 12:51:16;;;;;;;11.82;2.20;;;7.40;99.90;;;;;;5017778;28;20445;-67
2022/01/05 12:54:01;;;;;;;13.30;2.67;;;7.40;99.90;;;;;;5017706;28;20049;-67
2022/01/05 12:56:32;;;;;;;8.80;2.10;;;7.50;99.90;;;;;;5033285;28;20053;-67
2022/01/05 12:58:59;;;;;;;11.82;1.83;;;7.50;99.90;;;;;;5018079;28;20401;-65
2022/01/05 13:01:27;;;;;;;13.32;2.85;;;7.40;99.90;;;;;;5035580;28;20428;-68
2022/01/05 13:03:54;;;;;;;7.47;1.70;;;7.50;99.90;;;;;;5018092;28;20095;-66
2022/01/05 13:06:25;;;;;;;5.88;1.25;;;7.40;99.90;;;;;;5018007;28;20068;-66
2022/01/05 13:08:59;;;;;;;8.82;1.38;;;7.20;99.90;;;;;;5035260;28;20497;-67
2022/01/05 13:11:37;;;;;;;9.02;1.40;;;6.90;99.90;;;;;;5017617;28;20115;-69